EGPK/PIK METAR and TAF weather

Enter ICAO airport designator
Station Type Date Time Source
EGPK METAR 2021/05/11 23:20 UTC NOAA

EGPK 112320Z 36004KT 9999 -RA OVC040 08/07 Q1006


Station Type Date Time Source
EGPK Decoded METAR 2021/05/11 23:20 UTC NOAA

Prestwick Airport, United Kingdom (EGPK) 55-30N 004-35W 0M
May 11, 2021 - 07:20 PM EDT / 2021.05.11 2320 UTC
Wind: from the N (360 degrees) at 5 MPH (4 KT):0
Visibility: greater than 7 mile(s):0
Sky conditions: overcast
Weather: light rain
Temperature: 46 F (8 C)
Dew Point: 44 F (7 C)
Relative Humidity: 93%
Pressure (altimeter): 29.71 in. Hg (1006 hPa)
ob: EGPK 112320Z 36004KT 9999 -RA OVC040 08/07 Q1006
cycle: 23

Station Type Date Time Source
EGPK TAF 2021/05/11 22:00 UTC NOAA

TAF
AMD EGPK 112156Z 1122/1218 13006KT 9999 SCT035
TEMPO 1122/1218 5000 SHRA PROB30
TEMPO 1122/1123 3000 +SHRA PROB30
TEMPO 1205/1218 3000 +SHRA BKN012

Example: see airport list